createdAt,value
2022-10-11T00:00:59.034Z,83.55
2022-10-11T00:02:01.021Z,83.56
2022-10-11T00:03:08.369Z,83.49
2022-10-11T00:04:12.352Z,83.79
2022-10-11T00:05:14.290Z,83.99
2022-10-11T00:06:16.850Z,84.00
2022-10-11T00:07:19.612Z,83.91
2022-10-11T00:08:21.917Z,83.78
2022-10-11T00:09:24.290Z,83.76
2022-10-11T00:10:26.301Z,83.81
2022-10-11T00:11:28.076Z,83.99
2022-10-11T00:12:29.916Z,83.99
2022-10-11T00:13:31.855Z,83.80
2022-10-11T00:14:34.469Z,83.80
2022-10-11T00:15:39.151Z,83.88
2022-10-11T00:16:40.957Z,83.65
2022-10-11T00:17:43.216Z,83.47
2022-10-11T00:18:45.105Z,83.43
2022-10-11T00:19:46.751Z,83.92
2022-10-11T00:20:49.154Z,84.13
2022-10-11T00:21:51.079Z,84.42
2022-10-11T00:22:52.869Z,84.36
2022-10-11T00:23:54.626Z,84.43
2022-10-11T00:24:56.244Z,84.46
2022-10-11T00:26:00.166Z,84.81
2022-10-11T00:27:02.140Z,84.92
2022-10-11T00:28:04.519Z,84.82
2022-10-11T00:29:06.794Z,84.67
2022-10-11T00:30:10.395Z,84.55
2022-10-11T00:31:14.537Z,84.25
2022-10-11T00:32:16.751Z,84.09
2022-10-11T00:33:18.684Z,84.19
2022-10-11T00:34:20.406Z,84.35
2022-10-11T00:35:22.254Z,84.35
2022-10-11T00:36:25.906Z,84.51
2022-10-11T00:37:27.665Z,84.43
2022-10-11T00:38:31.817Z,84.40
2022-10-11T00:39:33.485Z,84.58
2022-10-11T00:40:35.450Z,85.29
2022-10-11T00:41:37.669Z,85.67
2022-10-11T00:42:39.957Z,85.75
2022-10-11T00:43:42.160Z,85.58
2022-10-11T00:44:46.704Z,85.69
2022-10-11T00:46:01.797Z,85.72
2022-10-11T00:48:20.534Z,86.07
2022-10-11T00:49:31.864Z,85.84
2022-10-11T00:50:35.806Z,85.85
2022-10-11T00:51:45.059Z,85.86
2022-10-11T00:52:59.479Z,86.15
2022-10-11T00:54:02.870Z,86.18
2022-10-11T00:55:08.374Z,85.93
2022-10-11T00:56:14.430Z,85.99
2022-10-11T00:57:19.717Z,85.77
2022-10-11T00:58:23.057Z,85.85
2022-10-11T00:59:28.554Z,85.80
2022-10-11T01:00:30.505Z,85.93
2022-10-11T01:01:32.478Z,86.10
2022-10-11T01:02:34.924Z,85.72
2022-10-11T01:03:38.628Z,85.81
2022-10-11T01:04:41.241Z,85.65
2022-10-11T01:05:45.028Z,85.59
2022-10-11T01:06:48.034Z,85.48
2022-10-11T01:07:50.364Z,85.62
2022-10-11T01:08:52.920Z,86.02
2022-10-11T01:09:54.716Z,86.41
2022-10-11T01:10:57.247Z,86.28
2022-10-11T01:12:02.338Z,86.09
2022-10-11T01:13:27.767Z,85.93
2022-10-11T01:14:56.880Z,85.95
2022-10-11T01:16:02.882Z,85.76
2022-10-11T01:17:27.114Z,85.26
2022-10-11T01:18:32.615Z,85.38
2022-10-11T01:20:10.314Z,85.70
2022-10-11T01:21:15.808Z,85.69
2022-10-11T01:22:55.106Z,85.49
2022-10-11T01:24:24.767Z,85.58
2022-10-11T01:25:32.764Z,85.48
2022-10-11T01:26:38.386Z,85.39
2022-10-11T01:27:46.642Z,85.23
2022-10-11T01:29:11.913Z,85.31
2022-10-11T01:30:20.932Z,85.22
2022-10-11T01:31:26.439Z,85.47
2022-10-11T01:32:56.224Z,85.38
2022-10-11T01:34:20.202Z,85.10
2022-10-11T01:35:26.189Z,85.14
2022-10-11T01:36:34.964Z,85.13
2022-10-11T01:37:40.431Z,85.18
2022-10-11T01:38:49.071Z,85.32
2022-10-11T01:40:06.711Z,85.47
2022-10-11T01:41:18.265Z,85.51
2022-10-11T01:42:21.369Z,85.70
2022-10-11T01:43:27.365Z,86.34
2022-10-11T01:44:31.188Z,86.62
2022-10-11T01:45:34.584Z,87.11
2022-10-11T01:46:36.726Z,86.97
2022-10-11T01:47:38.610Z,87.28
2022-10-11T01:48:52.908Z,88.08
2022-10-11T01:49:58.048Z,88.08
2022-10-11T01:51:02.892Z,88.09
2022-10-11T01:52:06.500Z,88.55
2022-10-11T01:53:17.761Z,88.53
2022-10-11T01:55:09.086Z,88.67
2022-10-11T01:56:22.905Z,88.85
2022-10-11T01:57:40.683Z,88.93
2022-10-11T01:58:55.947Z,88.89
2022-10-11T02:00:20.723Z,89.01
2022-10-11T02:02:00.153Z,89.23
2022-10-11T02:03:20.960Z,89.27
2022-10-11T02:04:32.347Z,89.33
2022-10-11T02:05:53.128Z,89.58
2022-10-11T02:07:01.683Z,89.87
2022-10-11T02:08:10.257Z,89.98
2022-10-11T02:09:15.753Z,89.77
2022-10-11T02:10:24.383Z,90.05
2022-10-11T02:11:32.298Z,90.00
2022-10-11T02:12:37.813Z,90.00
2022-10-11T02:13:46.313Z,89.77
2022-10-11T02:14:51.000Z,90.04
2022-10-11T02:15:55.820Z,89.92
2022-10-11T02:17:01.395Z,89.83
2022-10-11T02:18:06.941Z,89.91
2022-10-11T02:19:11.702Z,90.17
2022-10-11T02:20:17.347Z,90.40
2022-10-11T02:21:22.841Z,90.50
2022-10-11T02:22:28.732Z,90.44
2022-10-11T02:23:34.203Z,90.76
2022-10-11T02:24:39.718Z,91.09
2022-10-11T02:25:44.541Z,91.45
2022-10-11T02:26:49.522Z,91.67
2022-10-11T02:27:55.034Z,91.63
2022-10-11T02:29:00.186Z,91.01
2022-10-11T02:30:05.228Z,91.05
2022-10-11T02:31:09.476Z,91.01
2022-10-11T02:32:14.275Z,90.89
2022-10-11T02:33:20.245Z,91.04
2022-10-11T02:34:25.123Z,90.75
2022-10-11T02:35:30.355Z,89.83
2022-10-11T02:36:39.061Z,89.79
2022-10-11T02:37:59.935Z,89.38
2022-10-11T02:39:06.351Z,89.18
2022-10-11T02:40:17.734Z,89.55
2022-10-11T02:41:28.681Z,89.65
2022-10-11T02:42:37.789Z,89.61
2022-10-11T02:43:43.276Z,89.34
2022-10-11T02:44:48.781Z,89.45
2022-10-11T02:45:54.247Z,89.64
2022-10-11T02:46:56.370Z,89.59
2022-10-11T02:47:58.764Z,89.70
2022-10-11T02:49:01.791Z,89.30
2022-10-11T02:50:05.906Z,88.76
2022-10-11T02:51:13.653Z,88.84
2022-10-11T02:52:15.522Z,89.26
2022-10-11T02:53:17.270Z,89.51
2022-10-11T02:54:19.832Z,89.53
2022-10-11T02:55:21.719Z,89.70
2022-10-11T02:56:23.743Z,89.92
2022-10-11T02:57:25.555Z,89.58
2022-10-11T02:58:27.323Z,89.58
2022-10-11T02:59:29.033Z,89.27
2022-10-11T03:00:30.987Z,88.96
2022-10-11T03:01:32.656Z,88.80
2022-10-11T03:02:34.594Z,89.09
2022-10-11T03:03:36.554Z,89.24
2022-10-11T03:04:38.293Z,89.54
2022-10-11T03:05:40.944Z,89.53
2022-10-11T03:06:43.816Z,90.43
2022-10-11T03:07:45.555Z,90.43
2022-10-11T03:08:47.335Z,90.52
2022-10-11T03:09:49.954Z,90.86
2022-10-11T03:10:51.885Z,91.14
2022-10-11T03:11:53.500Z,91.17
2022-10-11T03:12:55.237Z,91.53
2022-10-11T03:13:57.047Z,91.95
2022-10-11T03:14:59.894Z,92.15
2022-10-11T03:16:03.547Z,92.00
2022-10-11T03:17:31.120Z,92.25
2022-10-11T03:18:09.327Z,92.35
2022-10-11T03:19:12.910Z,92.86
2022-10-11T03:20:15.071Z,92.86
2022-10-11T03:21:17.187Z,92.86
2022-10-11T03:22:19.082Z,92.86
2022-10-11T03:23:20.759Z,93.06
2022-10-11T03:24:22.653Z,93.06
2022-10-11T03:25:24.790Z,93.44
2022-10-11T03:26:26.656Z,93.39
2022-10-11T03:27:28.762Z,93.30
2022-10-11T03:28:30.734Z,93.41
2022-10-11T03:29:32.753Z,93.40
2022-10-11T03:30:34.464Z,93.39
2022-10-11T03:31:36.413Z,93.08
2022-10-11T03:32:39.490Z,93.01
2022-10-11T03:33:42.366Z,92.66
2022-10-11T03:34:44.202Z,92.45
2022-10-11T03:35:47.853Z,92.65
2022-10-11T03:36:50.760Z,92.51
2022-10-11T03:37:52.537Z,92.49
2022-10-11T03:38:54.140Z,92.36
2022-10-11T03:39:55.946Z,92.41
2022-10-11T03:40:57.677Z,92.06
2022-10-11T03:41:59.878Z,92.00
2022-10-11T03:43:01.706Z,92.09
2022-10-11T03:44:03.819Z,92.19
2022-10-11T03:45:07.418Z,92.31
2022-10-11T03:46:09.608Z,92.08
2022-10-11T03:47:11.461Z,91.96
2022-10-11T03:48:13.610Z,92.24
2022-10-11T03:49:15.412Z,92.11
2022-10-11T03:50:17.355Z,91.69
2022-10-11T03:51:19.118Z,91.85
2022-10-11T03:52:21.582Z,92.04
2022-10-11T03:53:23.417Z,92.22
2022-10-11T03:54:25.715Z,92.13
2022-10-11T03:55:27.798Z,92.20
2022-10-11T03:56:29.744Z,92.09
2022-10-11T03:57:31.371Z,92.09
2022-10-11T03:58:33.173Z,91.99
2022-10-11T03:59:34.898Z,92.03
2022-10-11T04:00:36.797Z,92.00
2022-10-11T04:01:38.549Z,92.05
2022-10-11T04:02:40.535Z,91.91
2022-10-11T04:03:42.295Z,91.96
2022-10-11T04:04:43.912Z,91.96
2022-10-11T04:05:45.757Z,92.31
2022-10-11T04:06:47.682Z,92.24
2022-10-11T04:07:49.511Z,92.06
2022-10-11T04:08:51.127Z,92.23
2022-10-11T04:09:53.799Z,91.61
2022-10-11T04:10:55.743Z,91.24
2022-10-11T04:11:58.173Z,90.89
2022-10-11T04:13:00.037Z,91.17
2022-10-11T04:14:01.887Z,91.49
2022-10-11T04:15:05.157Z,91.71
2022-10-11T04:16:08.514Z,92.00
2022-10-11T04:17:11.710Z,92.11
2022-10-11T04:18:13.666Z,92.41
2022-10-11T04:19:15.989Z,92.47
2022-10-11T04:20:18.052Z,92.54
2022-10-11T04:21:20.188Z,92.32
2022-10-11T04:22:22.284Z,92.13
2022-10-11T04:23:24.157Z,92.12
2022-10-11T04:24:26.047Z,92.04
2022-10-11T04:25:28.019Z,92.39
2022-10-11T04:26:30.117Z,92.39
2022-10-11T04:27:32.984Z,92.86
2022-10-11T04:28:36.032Z,93.05
2022-10-11T04:29:38.095Z,93.64
2022-10-11T04:30:39.916Z,94.23
2022-10-11T04:31:42.628Z,94.62
2022-10-11T04:32:44.541Z,95.43
2022-10-11T04:33:46.974Z,96.30
2022-10-11T04:34:48.844Z,96.52
2022-10-11T04:35:55.673Z,96.61
2022-10-11T04:36:57.605Z,96.61
2022-10-11T04:37:59.247Z,96.53
2022-10-11T04:39:01.518Z,96.43
2022-10-11T04:40:06.161Z,96.65
2022-10-11T04:41:09.799Z,96.77
2022-10-11T04:42:13.023Z,96.67
2022-10-11T04:43:14.966Z,96.78
2022-10-11T04:44:18.118Z,97.11
2022-10-11T04:45:21.066Z,97.50
2022-10-11T04:46:24.046Z,97.76
2022-10-11T04:47:26.184Z,98.25
2022-10-11T04:48:28.502Z,98.45
2022-10-11T04:49:30.289Z,98.64
2022-10-11T04:50:32.134Z,99.25
2022-10-11T04:51:33.740Z,99.25
2022-10-11T04:52:35.514Z,99.44
2022-10-11T04:53:37.236Z,99.51
2022-10-11T04:54:39.758Z,99.53
2022-10-11T04:55:41.468Z,99.79
2022-10-11T04:56:45.763Z,99.79
2022-10-11T04:57:47.663Z,99.89
2022-10-11T04:58:49.659Z,100.00
2022-10-11T04:59:51.535Z,100.00
2022-10-11T05:00:55.245Z,100.00
2022-10-11T05:01:57.207Z,100.00
2022-10-11T05:02:59.162Z,100.00
2022-10-11T05:04:00.918Z,100.00
2022-10-11T05:05:03.874Z,100.00
2022-10-11T05:06:06.363Z,100.00
2022-10-11T05:07:08.317Z,100.00
2022-10-11T05:08:11.019Z,100.00
2022-10-11T05:09:12.831Z,100.00
2022-10-11T05:10:15.130Z,100.00
2022-10-11T05:11:17.626Z,100.00
2022-10-11T05:12:19.928Z,100.00
2022-10-11T05:13:23.566Z,100.00
2022-10-11T05:14:25.539Z,100.00
2022-10-11T05:15:27.397Z,99.80
2022-10-11T05:16:29.381Z,99.49
2022-10-11T05:17:31.326Z,98.95
2022-10-11T05:18:33.701Z,98.57
2022-10-11T05:19:35.761Z,98.15
2022-10-11T05:20:37.630Z,97.50
2022-10-11T05:21:39.493Z,97.21
2022-10-11T05:22:41.210Z,97.17
2022-10-11T05:23:44.064Z,97.34
2022-10-11T05:24:45.810Z,97.22
2022-10-11T05:25:47.452Z,97.28
2022-10-11T05:26:49.784Z,97.39
2022-10-11T05:27:51.839Z,97.69
2022-10-11T05:28:55.010Z,97.80
2022-10-11T05:29:57.971Z,97.78
2022-10-11T05:30:59.916Z,97.95
2022-10-11T05:32:02.798Z,97.94
2022-10-11T05:33:04.663Z,98.07
2022-10-11T05:34:07.002Z,97.74
2022-10-11T05:35:09.551Z,97.85
2022-10-11T05:36:12.259Z,98.05
2022-10-11T05:37:14.043Z,98.06
2022-10-11T05:38:16.641Z,98.49
2022-10-11T05:39:19.440Z,99.05
2022-10-11T05:40:21.378Z,99.21
2022-10-11T05:41:23.133Z,99.46
2022-10-11T05:42:25.516Z,99.60
2022-10-11T05:43:28.417Z,99.78
2022-10-11T05:44:30.142Z,99.69
2022-10-11T05:45:37.648Z,99.78
2022-10-11T05:46:39.763Z,99.97
2022-10-11T05:47:41.460Z,100.00
2022-10-11T05:48:44.269Z,99.98
2022-10-11T05:49:47.154Z,99.73
2022-10-11T05:50:49.679Z,99.86
2022-10-11T05:51:51.421Z,99.92
2022-10-11T05:52:53.040Z,99.93
2022-10-11T05:53:54.690Z,99.66
2022-10-11T05:54:57.549Z,99.46
2022-10-11T05:55:59.631Z,99.55
2022-10-11T05:57:02.452Z,99.36
2022-10-11T05:58:05.522Z,99.46
2022-10-11T05:59:08.300Z,99.40
2022-10-11T06:00:11.546Z,99.14
2022-10-11T06:02:34.848Z,98.89
2022-10-11T06:03:36.979Z,98.91
2022-10-11T06:04:39.553Z,98.61
2022-10-11T06:05:42.471Z,98.02
2022-10-11T06:06:44.900Z,97.86
2022-10-11T06:07:46.653Z,97.94
2022-10-11T06:08:48.852Z,97.78
2022-10-11T06:09:52.515Z,97.09
2022-10-11T06:10:54.442Z,96.99
2022-10-11T06:11:56.764Z,96.93
2022-10-11T06:12:58.517Z,96.72
2022-10-11T06:14:00.358Z,96.52
2022-10-11T06:15:05.102Z,96.60
2022-10-11T06:16:08.414Z,96.39
2022-10-11T06:17:10.733Z,96.15
2022-10-11T06:18:12.481Z,96.12
2022-10-11T06:19:14.196Z,95.89
2022-10-11T06:20:16.683Z,95.33
2022-10-11T06:21:18.354Z,94.67
2022-10-11T06:22:21.079Z,93.95
2022-10-11T06:23:22.958Z,93.88
2022-10-11T06:24:24.591Z,93.46
2022-10-11T06:25:26.299Z,93.46
2022-10-11T06:26:29.159Z,93.28
2022-10-11T06:27:31.428Z,93.06
2022-10-11T06:28:35.405Z,92.93
2022-10-11T06:29:38.515Z,92.20
2022-10-11T06:30:40.367Z,92.04
2022-10-11T06:31:43.227Z,91.94
2022-10-11T06:32:45.521Z,91.52
2022-10-11T06:33:47.711Z,91.11
2022-10-11T06:34:50.089Z,90.74
2022-10-11T06:36:00.067Z,90.79
2022-10-11T06:37:02.612Z,91.08
2022-10-11T06:38:05.819Z,90.89
2022-10-11T06:39:07.708Z,90.84
2022-10-11T06:40:10.958Z,90.46
2022-10-11T06:41:16.463Z,90.09
2022-10-11T06:42:18.170Z,89.22
2022-10-11T06:43:20.312Z,88.42
2022-10-11T06:44:21.994Z,88.24
2022-10-11T06:45:23.628Z,88.15
2022-10-11T06:46:27.146Z,88.25
2022-10-11T06:47:29.645Z,87.88
2022-10-11T06:48:32.102Z,87.55
2022-10-11T06:49:34.587Z,86.94
2022-10-11T06:50:58.719Z,86.72
2022-10-11T06:51:41.943Z,86.65
2022-10-11T06:52:43.824Z,87.11
2022-10-11T06:53:55.595Z,86.59
2022-10-11T06:54:58.140Z,86.33
2022-10-11T06:56:10.591Z,86.31
2022-10-11T06:57:12.547Z,86.12
2022-10-11T06:58:14.186Z,85.58
2022-10-11T06:59:16.618Z,85.58
2022-10-11T07:00:18.725Z,85.36
2022-10-11T07:01:21.634Z,85.45
2022-10-11T07:02:23.568Z,85.36
2022-10-11T07:03:25.706Z,85.25
2022-10-11T07:04:27.481Z,85.04
2022-10-11T07:05:29.645Z,84.58
2022-10-11T07:06:32.608Z,84.22
2022-10-11T07:07:34.384Z,85.87
2022-10-11T07:08:38.125Z,85.24
2022-10-11T07:09:40.637Z,84.17
2022-10-11T07:10:42.430Z,83.96
2022-10-11T07:11:44.298Z,82.80
2022-10-11T07:12:46.136Z,82.57
2022-10-11T07:15:00.314Z,83.11
2022-10-11T07:16:08.992Z,82.50
2022-10-11T07:17:12.207Z,81.85
2022-10-11T07:18:13.973Z,82.19
2022-10-11T07:19:15.813Z,82.12
2022-10-11T07:20:18.300Z,82.12
2022-10-11T07:21:20.366Z,81.25
2022-10-11T07:22:22.071Z,80.46
2022-10-11T07:23:24.076Z,80.75
2022-10-11T07:24:26.092Z,80.26
2022-10-11T07:25:27.759Z,80.04
2022-10-11T07:26:35.296Z,79.72
2022-10-11T07:27:33.613Z,79.13
2022-10-11T07:28:36.668Z,79.94
2022-10-11T07:29:38.808Z,80.11
2022-10-11T07:30:42.626Z,78.45
2022-10-11T07:31:44.701Z,78.07
2022-10-11T07:32:46.402Z,77.97
2022-10-11T07:33:48.227Z,77.32
2022-10-11T07:34:49.910Z,77.52
2022-10-11T07:35:56.472Z,77.99
2022-10-11T07:36:58.407Z,78.71
2022-10-11T07:38:00.389Z,78.19
2022-10-11T07:39:05.670Z,78.11
2022-10-11T07:40:10.315Z,77.01
2022-10-11T07:41:12.779Z,76.37
2022-10-11T07:42:15.141Z,75.18
2022-10-11T07:43:17.113Z,76.01
2022-10-11T07:44:18.796Z,73.23
2022-10-11T07:45:21.183Z,72.57
2022-10-11T07:46:23.044Z,73.31
2022-10-11T07:47:24.663Z,71.60
2022-10-11T07:48:26.400Z,71.55
2022-10-11T07:49:28.802Z,70.88
2022-10-11T07:50:30.901Z,70.63
2022-10-11T07:51:32.731Z,71.05
2022-10-11T07:52:34.759Z,70.48
2022-10-11T07:53:45.597Z,69.37
2022-10-11T07:54:51.575Z,68.95
2022-10-11T07:55:53.331Z,68.33
2022-10-11T07:56:55.234Z,67.11
2022-10-11T07:57:57.923Z,67.11
2022-10-11T07:59:01.194Z,67.06
2022-10-11T08:00:04.277Z,65.88
2022-10-11T08:01:09.750Z,66.17
2022-10-11T08:02:12.837Z,66.52
2022-10-11T08:03:14.791Z,67.16
2022-10-11T08:04:16.994Z,66.56
2022-10-11T08:05:19.464Z,66.56
2022-10-11T08:06:24.260Z,66.52
2022-10-11T08:07:26.209Z,66.34
2022-10-11T08:08:29.648Z,66.50
2022-10-11T08:09:31.768Z,66.14
2022-10-11T08:10:38.853Z,66.28
2022-10-11T08:11:40.718Z,66.62
2022-10-11T08:12:42.515Z,65.89
2022-10-11T08:13:45.495Z,65.20
2022-10-11T08:14:47.430Z,64.76
2022-10-11T08:15:50.192Z,64.43
2022-10-11T08:16:52.641Z,64.61
2022-10-11T08:17:54.579Z,64.71
2022-10-11T08:18:57.205Z,65.01
2022-10-11T08:19:59.447Z,65.06
2022-10-11T08:21:10.117Z,65.38
2022-10-11T08:22:11.961Z,64.54
2022-10-11T08:23:15.178Z,63.41
2022-10-11T08:24:18.107Z,63.86
2022-10-11T08:25:20.411Z,64.20
2022-10-11T08:26:22.493Z,64.84
2022-10-11T08:27:26.088Z,64.45
2022-10-11T08:28:29.141Z,64.26
2022-10-11T08:29:32.111Z,64.41
2022-10-11T08:30:35.662Z,64.96
2022-10-11T08:31:37.965Z,65.26
2022-10-11T08:32:39.930Z,65.09
2022-10-11T08:33:43.475Z,64.56
2022-10-11T08:34:45.420Z,63.68
2022-10-11T08:35:48.848Z,64.46
2022-10-11T08:36:53.088Z,63.82
2022-10-11T08:37:54.928Z,63.91
2022-10-11T08:38:58.231Z,62.00
2022-10-11T08:40:00.990Z,62.19
2022-10-11T08:41:05.169Z,62.48
2022-10-11T08:42:17.255Z,62.23
2022-10-11T08:43:47.419Z,62.02
2022-10-11T08:46:01.359Z,61.72
2022-10-11T08:48:36.574Z,62.12
2022-10-11T08:49:39.332Z,62.02
2022-10-11T08:50:45.460Z,62.12
2022-10-11T08:51:54.008Z,62.45
2022-10-11T08:53:14.824Z,61.65
2022-10-11T08:54:23.906Z,61.08
2022-10-11T08:55:38.717Z,60.72
2022-10-11T08:56:42.242Z,59.94
2022-10-11T08:57:48.310Z,60.46
2022-10-11T08:58:57.962Z,60.65
2022-10-11T09:00:03.575Z,60.37
2022-10-11T09:01:08.807Z,58.92
2022-10-11T09:02:20.315Z,59.05
2022-10-11T09:03:31.934Z,58.72
2022-10-11T09:04:34.297Z,59.02
2022-10-11T09:05:51.966Z,58.43
2022-10-11T09:07:05.161Z,58.15
2022-10-11T09:08:19.545Z,58.65
2022-10-11T09:09:34.339Z,58.24
2022-10-11T09:11:07.408Z,58.20
2022-10-11T09:12:39.808Z,57.91
2022-10-11T09:15:31.369Z,56.86
2022-10-11T09:16:58.697Z,56.51
2022-10-11T09:18:38.001Z,57.21
2022-10-11T09:20:12.499Z,56.17
2022-10-11T09:21:17.985Z,56.15
2022-10-11T09:22:41.279Z,54.70
2022-10-11T09:24:22.242Z,55.27
2022-10-11T09:25:35.933Z,55.12
2022-10-11T09:26:53.261Z,56.38
2022-10-11T09:28:15.803Z,56.32
2022-10-11T09:29:30.686Z,56.44
2022-10-11T09:30:36.748Z,56.41
2022-10-11T09:31:38.670Z,56.74
2022-10-11T09:32:44.246Z,57.18
2022-10-11T09:33:48.272Z,55.79
2022-10-11T09:36:28.368Z,54.22
2022-10-11T09:37:40.492Z,52.18
2022-10-11T09:39:06.449Z,51.65
2022-10-11T09:40:16.461Z,53.14
2022-10-11T09:41:25.385Z,53.15
2022-10-11T09:42:28.370Z,53.78
2022-10-11T09:43:31.723Z,54.57
2022-10-11T09:44:51.865Z,54.86
2022-10-11T09:45:53.682Z,55.09
2022-10-11T09:46:57.128Z,54.68
2022-10-11T09:48:01.562Z,55.16
2022-10-11T09:49:10.684Z,55.45
2022-10-11T09:50:21.143Z,55.10
2022-10-11T09:51:26.460Z,54.56
2022-10-11T09:52:28.949Z,53.26
2022-10-11T09:53:52.496Z,53.80
2022-10-11T09:54:57.518Z,54.10
2022-10-11T09:56:04.242Z,52.13
2022-10-11T09:57:09.335Z,51.91
2022-10-11T09:58:33.597Z,51.80
2022-10-11T09:59:36.408Z,52.20
2022-10-11T10:00:38.633Z,52.03
2022-10-11T10:01:40.459Z,52.47
2022-10-11T10:02:48.349Z,52.99
2022-10-11T10:03:53.849Z,53.23
2022-10-11T10:05:12.243Z,52.97
2022-10-11T10:06:24.399Z,53.00
2022-10-11T10:07:27.904Z,56.55
2022-10-11T10:08:29.841Z,63.98
2022-10-11T10:09:31.841Z,57.47
2022-10-11T10:10:43.071Z,52.94
2022-10-11T10:11:45.608Z,50.74
2022-10-11T10:12:51.479Z,50.94
2022-10-11T10:13:55.675Z,51.23
2022-10-11T10:15:16.547Z,51.17
2022-10-11T10:16:33.353Z,51.22
2022-10-11T10:17:35.565Z,56.04
2022-10-11T10:18:42.931Z,53.20
2022-10-11T10:19:51.665Z,52.06
2022-10-11T10:20:56.325Z,52.23
2022-10-11T10:21:59.537Z,55.47
2022-10-11T10:24:39.460Z,53.19
2022-10-11T10:25:43.671Z,53.34
2022-10-11T10:27:12.264Z,52.00
2022-10-11T10:28:24.175Z,50.36
2022-10-11T10:29:26.166Z,52.99
2022-10-11T10:30:34.495Z,51.26
2022-10-11T10:32:08.832Z,51.74
2022-10-11T10:33:54.758Z,52.96
2022-10-11T10:35:12.337Z,51.21
2022-10-11T10:36:21.331Z,51.21
2022-10-11T10:37:33.004Z,50.69
2022-10-11T10:38:42.334Z,57.10
2022-10-11T10:39:47.828Z,49.59
2022-10-11T10:40:53.258Z,49.26
2022-10-11T10:41:56.360Z,49.11
2022-10-11T10:42:59.561Z,48.66
2022-10-11T10:44:02.518Z,49.46
2022-10-11T10:45:12.134Z,50.58
2022-10-11T10:46:28.999Z,50.60
2022-10-11T10:48:06.079Z,50.71
2022-10-11T10:50:25.276Z,51.04
2022-10-11T10:51:52.639Z,50.89
2022-10-11T10:53:20.997Z,50.71
2022-10-11T10:54:42.871Z,51.28
2022-10-11T10:55:54.207Z,51.06
2022-10-11T10:57:00.814Z,50.93
2022-10-11T10:58:35.233Z,50.51
2022-10-11T10:59:47.203Z,50.75
2022-10-11T11:00:54.723Z,50.40
2022-10-11T11:02:34.957Z,50.26
2022-10-11T11:03:28.979Z,50.36
2022-10-11T11:04:33.520Z,50.22
2022-10-11T11:05:43.025Z,50.43
2022-10-11T11:07:09.921Z,50.48
2022-10-11T11:08:50.185Z,50.87
2022-10-11T11:10:05.352Z,51.20
2022-10-11T11:11:11.287Z,52.12
2022-10-11T11:12:38.174Z,52.27
2022-10-11T11:13:51.339Z,52.00
2022-10-11T11:15:16.085Z,51.31
2022-10-11T11:18:04.945Z,50.24
2022-10-11T11:19:25.401Z,51.05
2022-10-11T11:20:46.881Z,49.61
2022-10-11T11:22:07.898Z,49.85
2022-10-11T11:23:22.632Z,50.00
2022-10-11T11:24:49.850Z,49.85
2022-10-11T11:26:12.518Z,49.85
2022-10-11T11:27:42.563Z,49.93
2022-10-11T11:29:21.765Z,49.55
2022-10-11T11:30:34.070Z,48.69
2022-10-11T11:33:07.587Z,48.67
2022-10-11T11:34:28.491Z,48.98
2022-10-11T11:35:50.860Z,47.70
2022-10-11T11:37:05.634Z,48.13
2022-10-11T11:38:19.846Z,47.73
2022-10-11T11:39:41.647Z,47.76
2022-10-11T11:40:47.217Z,47.73
2022-10-11T11:42:06.713Z,46.79
2022-10-11T11:43:24.581Z,46.86
2022-10-11T11:44:33.099Z,45.98
2022-10-11T11:45:57.063Z,46.45
2022-10-11T11:47:14.760Z,45.03
2022-10-11T11:48:23.039Z,44.87
2022-10-11T11:49:31.718Z,43.95
2022-10-11T11:50:40.162Z,44.43
2022-10-11T11:51:44.608Z,44.03
2022-10-11T11:52:50.037Z,43.69
2022-10-11T11:54:02.287Z,43.59
2022-10-11T11:55:37.592Z,42.07
2022-10-11T11:57:04.643Z,39.63
2022-10-11T11:58:32.220Z,40.16
2022-10-11T11:59:40.650Z,40.33
2022-10-11T12:01:10.423Z,40.72
2022-10-11T12:02:35.227Z,40.63
2022-10-11T12:03:41.889Z,39.79
2022-10-11T12:04:47.452Z,39.54
2022-10-11T12:05:53.387Z,39.53
2022-10-11T12:07:16.335Z,38.73
2022-10-11T12:08:28.387Z,38.33
2022-10-11T12:09:32.533Z,37.38
2022-10-11T12:10:56.922Z,36.69
2022-10-11T12:12:03.179Z,36.69
2022-10-11T12:13:21.978Z,35.57
2022-10-11T12:14:39.480Z,35.99
2022-10-11T12:16:00.094Z,33.94
2022-10-11T12:17:21.516Z,33.17
2022-10-11T12:18:25.773Z,33.78
2022-10-11T12:19:28.894Z,34.72
2022-10-11T12:20:35.814Z,34.72
2022-10-11T12:21:39.965Z,34.40
2022-10-11T12:23:00.663Z,32.74
2022-10-11T12:24:20.756Z,32.40
2022-10-11T12:25:29.912Z,33.26
2022-10-11T12:26:35.533Z,33.76
2022-10-11T12:27:43.879Z,34.31
2022-10-11T12:29:01.492Z,35.01
2022-10-11T12:30:06.221Z,34.94
2022-10-11T12:31:24.540Z,32.63
2022-10-11T12:32:30.125Z,32.67
2022-10-11T12:33:36.121Z,34.19
2022-10-11T12:34:43.707Z,32.89
2022-10-11T12:36:05.611Z,33.10
2022-10-11T12:37:21.759Z,33.99
2022-10-11T12:38:38.116Z,34.78
2022-10-11T12:39:43.750Z,34.84
2022-10-11T12:40:49.866Z,34.83
2022-10-11T12:41:56.484Z,34.14
2022-10-11T12:43:17.454Z,34.71
2022-10-11T12:44:25.426Z,34.46
2022-10-11T12:45:33.534Z,35.21
2022-10-11T12:46:43.194Z,35.53
2022-10-11T12:48:12.690Z,36.05
2022-10-11T12:49:33.350Z,35.14
2022-10-11T12:51:00.752Z,36.94
2022-10-11T12:52:06.382Z,37.00
2022-10-11T12:53:27.649Z,35.66
2022-10-11T12:55:08.465Z,36.69
2022-10-11T12:56:26.585Z,36.58
2022-10-11T12:57:48.400Z,37.25
2022-10-11T12:58:53.979Z,37.06
2022-10-11T13:00:00.546Z,36.32
2022-10-11T13:01:09.065Z,36.65
2022-10-11T13:02:39.229Z,35.52
2022-10-11T13:03:47.974Z,34.01
2022-10-11T13:04:51.296Z,34.00
2022-10-11T13:05:56.165Z,34.11
2022-10-11T13:07:06.426Z,34.90
2022-10-11T13:08:09.451Z,33.75
2022-10-11T13:09:15.019Z,34.01
2022-10-11T13:10:21.652Z,34.11
2022-10-11T13:11:34.062Z,34.17
2022-10-11T13:12:39.698Z,34.26
2022-10-11T13:13:45.381Z,34.57
2022-10-11T13:15:03.214Z,34.47
2022-10-11T13:16:11.017Z,33.84
2022-10-11T13:17:22.583Z,33.71
2022-10-11T13:18:26.531Z,33.73
2022-10-11T13:19:30.309Z,33.49
2022-10-11T13:20:37.428Z,33.14
2022-10-11T13:21:38.190Z,33.47
2022-10-11T13:22:40.040Z,33.62
2022-10-11T13:23:41.692Z,33.99
2022-10-11T13:24:43.943Z,33.99
2022-10-11T13:25:48.347Z,33.61
2022-10-11T13:26:54.253Z,34.14
2022-10-11T13:27:57.560Z,33.98
2022-10-11T13:28:59.518Z,34.34
2022-10-11T13:30:04.812Z,33.38
2022-10-11T13:31:09.100Z,33.73
2022-10-11T13:32:17.531Z,33.88
2022-10-11T13:33:23.877Z,33.63
2022-10-11T13:34:30.618Z,33.45
2022-10-11T13:35:34.874Z,33.56
2022-10-11T13:36:37.465Z,33.31
2022-10-11T13:37:46.734Z,32.46
2022-10-11T13:38:59.976Z,32.47
2022-10-11T13:40:04.310Z,32.71
2022-10-11T13:41:10.607Z,32.38
2022-10-11T13:42:15.638Z,33.23
2022-10-11T13:43:21.743Z,32.49
2022-10-11T13:44:26.090Z,32.76
2022-10-11T13:45:28.753Z,33.35
2022-10-11T13:46:32.848Z,32.82
2022-10-11T13:47:35.850Z,33.21
2022-10-11T13:48:40.633Z,33.17
2022-10-11T13:49:48.414Z,32.86
2022-10-11T13:51:13.730Z,32.38
2022-10-11T13:52:22.770Z,32.76
2022-10-11T13:53:27.033Z,31.73
2022-10-11T13:54:54.648Z,31.29
2022-10-11T13:55:59.208Z,31.25
2022-10-11T13:57:01.860Z,31.87
2022-10-11T13:58:12.812Z,32.78
2022-10-11T13:59:17.877Z,32.96
2022-10-11T14:00:29.503Z,33.41
2022-10-11T14:01:44.329Z,33.06
2022-10-11T14:02:52.719Z,33.28
2022-10-11T14:03:58.809Z,33.30
2022-10-11T14:05:00.828Z,33.57
2022-10-11T14:06:03.396Z,33.34
2022-10-11T14:07:06.672Z,33.75
2022-10-11T14:08:30.377Z,34.30
2022-10-11T14:09:38.426Z,33.75
2022-10-11T14:10:44.020Z,32.90
2022-10-11T15:20:00.825Z,43.35
2022-10-11T15:21:04.643Z,43.62
2022-10-11T15:22:06.501Z,44.07
2022-10-11T15:23:10.279Z,44.09
2022-10-11T15:24:12.998Z,44.24
2022-10-11T15:25:15.326Z,43.98
2022-10-11T15:26:20.831Z,43.90
2022-10-11T15:27:22.797Z,43.99
2022-10-11T15:28:30.634Z,44.30
2022-10-11T15:29:32.970Z,44.31
2022-10-11T15:30:40.965Z,44.24
2022-10-11T15:31:41.347Z,44.27
2022-10-11T15:32:44.018Z,44.67
2022-10-11T15:33:46.439Z,44.55
2022-10-11T15:34:48.213Z,44.70
2022-10-11T15:35:49.852Z,44.21
2022-10-11T15:36:51.822Z,43.96
2022-10-11T15:37:59.043Z,44.06
2022-10-11T15:39:00.887Z,44.07
2022-10-11T15:40:21.279Z,43.90
2022-10-11T15:41:24.950Z,44.02
2022-10-11T15:42:26.777Z,44.46
2022-10-11T15:43:28.636Z,45.51
2022-10-11T15:44:30.786Z,46.30
2022-10-11T15:45:35.005Z,46.30